createdAt,value
2018-06-09T00:00:49.657Z,43.30
2018-06-09T00:03:17.838Z,41.60
2018-06-09T00:05:45.990Z,42.50
2018-06-09T00:08:14.180Z,45.10
2018-06-09T00:10:42.337Z,44.63
2018-06-09T00:13:10.504Z,44.70
2018-06-09T00:15:38.675Z,42.17
2018-06-09T00:18:06.835Z,41.93
2018-06-09T00:20:34.982Z,44.50
2018-06-09T00:23:03.140Z,44.47
2018-06-09T00:25:31.313Z,43.77
2018-06-09T00:27:59.487Z,45.00
2018-06-09T00:30:27.639Z,43.43
2018-06-09T00:32:55.814Z,44.60
2018-06-09T00:35:23.984Z,42.17
2018-06-09T00:37:52.167Z,42.53
2018-06-09T00:40:20.361Z,42.43
2018-06-09T00:42:48.529Z,43.13
2018-06-09T00:45:16.721Z,46.43
2018-06-09T00:47:44.880Z,43.50
2018-06-09T00:50:13.060Z,45.47
2018-06-09T00:52:41.229Z,48.60
2018-06-09T00:55:09.413Z,46.17
2018-06-09T00:57:37.591Z,41.60
2018-06-09T01:00:05.763Z,42.83
2018-06-09T01:02:33.920Z,43.27
2018-06-09T01:05:02.091Z,45.40
2018-06-09T01:07:30.264Z,44.90
2018-06-09T01:09:58.424Z,45.83
2018-06-09T01:12:26.582Z,43.77
2018-06-09T01:14:54.770Z,45.77
2018-06-09T01:17:22.941Z,41.70
2018-06-09T01:19:51.133Z,46.07
2018-06-09T01:22:19.289Z,49.90
2018-06-09T01:24:47.465Z,47.63
2018-06-09T01:27:15.637Z,49.67
2018-06-09T01:29:43.811Z,50.10
2018-06-09T01:32:11.976Z,49.33
2018-06-09T01:34:40.136Z,50.50
2018-06-09T01:37:08.296Z,47.60
2018-06-09T01:39:36.467Z,44.17
2018-06-09T01:42:04.629Z,42.63
2018-06-09T01:44:32.582Z,44.63
2018-06-09T01:47:00.974Z,40.23
2018-06-09T01:49:29.148Z,43.30
2018-06-09T01:51:57.066Z,42.10
2018-06-09T01:54:25.244Z,38.70
2018-06-09T01:56:53.418Z,51.30
2018-06-09T01:59:21.588Z,44.73
2018-06-09T02:01:49.762Z,41.17
2018-06-09T02:04:17.943Z,44.63
2018-06-09T02:06:46.097Z,42.27
2018-06-09T02:09:14.289Z,43.77
2018-06-09T02:11:42.461Z,44.27
2018-06-09T02:14:10.635Z,40.90
2018-06-09T02:16:38.805Z,41.23
2018-06-09T02:21:41.668Z,42.87
2018-06-09T02:24:09.846Z,43.23
2018-06-09T02:26:38.127Z,38.70
2018-06-09T02:29:06.433Z,46.67
2018-06-09T02:31:34.706Z,44.37
2018-06-09T02:34:02.963Z,40.67
2018-06-09T02:36:31.191Z,37.37
2018-06-09T02:38:59.444Z,41.20
2018-06-09T02:41:27.692Z,38.23
2018-06-09T02:43:55.942Z,45.80
2018-06-09T02:46:24.178Z,49.17
2018-06-09T02:48:52.331Z,50.23
2018-06-09T02:51:20.520Z,51.33
2018-06-09T02:53:48.684Z,51.07
2018-06-09T02:56:16.871Z,48.77
2018-06-09T02:58:45.034Z,54.57
2018-06-09T03:01:13.231Z,53.40
2018-06-09T03:03:41.415Z,53.07
2018-06-09T03:06:09.610Z,53.20
2018-06-09T03:08:37.764Z,53.07
2018-06-09T03:11:05.940Z,53.20
2018-06-09T03:13:34.113Z,51.83
2018-06-09T03:16:02.305Z,51.43
2018-06-09T03:18:30.459Z,50.00
2018-06-09T03:20:58.642Z,51.40
2018-06-09T03:23:26.797Z,47.03
2018-06-09T03:25:54.986Z,51.80
2018-06-09T03:28:23.160Z,51.93
2018-06-09T03:30:51.335Z,50.60
2018-06-09T03:33:19.515Z,54.10
2018-06-09T03:35:47.689Z,49.37
2018-06-09T03:38:15.853Z,56.37
2018-06-09T03:40:44.033Z,49.33
2018-06-09T03:43:12.210Z,51.97
2018-06-09T03:45:40.375Z,55.23
2018-06-09T03:48:08.533Z,56.57
2018-06-09T03:50:36.780Z,57.43
2018-06-09T03:53:04.893Z,56.73
2018-06-09T03:55:33.044Z,55.97
2018-06-09T03:58:01.417Z,53.87
2018-06-09T04:00:29.600Z,64.50
2018-06-09T04:02:57.771Z,57.83
2018-06-09T04:05:25.930Z,62.97
2018-06-09T04:07:54.140Z,61.83
2018-06-09T04:10:22.333Z,63.33
2018-06-09T04:12:50.501Z,61.67
2018-06-09T04:15:18.662Z,56.10
2018-06-09T04:17:46.833Z,65.53
2018-06-09T04:20:15.017Z,60.37
2018-06-09T04:22:44.020Z,61.13
2018-06-09T04:25:12.190Z,55.30
2018-06-09T04:27:40.365Z,57.63
2018-06-09T04:30:08.530Z,61.17
2018-06-09T04:32:36.710Z,58.23
2018-06-09T04:35:04.944Z,57.23
2018-06-09T04:37:33.120Z,58.50
2018-06-09T04:40:01.346Z,59.60
2018-06-09T04:42:29.465Z,56.37
2018-06-09T04:44:57.635Z,56.73
2018-06-09T04:47:25.817Z,59.87
2018-06-09T04:49:54.004Z,55.47
2018-06-09T04:52:22.170Z,52.10
2018-06-09T04:54:50.329Z,51.40
2018-06-09T04:57:18.519Z,55.43
2018-06-09T04:59:46.699Z,52.33
2018-06-09T05:02:14.877Z,52.80
2018-06-09T05:04:43.045Z,50.07
2018-06-09T05:07:11.281Z,48.03
2018-06-09T05:09:39.397Z,54.17
2018-06-09T05:12:07.569Z,57.00
2018-06-09T05:14:35.739Z,55.77
2018-06-09T05:17:04.121Z,46.77
2018-06-09T05:19:32.308Z,50.43
2018-06-09T05:22:00.550Z,52.63
2018-06-09T05:24:28.704Z,50.13
2018-06-09T05:26:56.866Z,49.00
2018-06-09T05:29:24.773Z,48.57
2018-06-09T05:31:52.916Z,46.93
2018-06-09T05:34:21.076Z,48.53
2018-06-09T05:36:49.002Z,43.53
2018-06-09T05:39:17.186Z,44.07
2018-06-09T05:41:45.338Z,48.17
2018-06-09T05:44:13.509Z,53.90
2018-06-09T05:46:41.690Z,51.87
2018-06-09T05:49:09.869Z,55.37
2018-06-09T05:51:38.046Z,58.80
2018-06-09T05:54:06.224Z,55.20
2018-06-09T05:56:34.401Z,54.17
2018-06-09T05:59:02.594Z,55.20
2018-06-09T06:01:30.753Z,55.63
2018-06-09T06:03:58.952Z,55.93
2018-06-09T06:06:27.083Z,54.53
2018-06-09T06:08:55.258Z,54.30
2018-06-09T06:11:23.433Z,55.73
2018-06-09T06:13:51.620Z,55.00
2018-06-09T06:16:19.804Z,52.53
2018-06-09T06:18:47.982Z,60.67
2018-06-09T06:21:16.128Z,60.47
2018-06-09T06:23:44.313Z,60.37
2018-06-09T06:26:12.473Z,59.87
2018-06-09T06:28:40.644Z,58.43
2018-06-09T06:31:08.816Z,58.23
2018-06-09T06:33:36.993Z,57.40
2018-06-09T06:36:05.181Z,58.77
2018-06-09T06:38:33.357Z,60.00
2018-06-09T06:41:01.538Z,61.37
2018-06-09T06:43:29.718Z,59.57
2018-06-09T06:45:57.896Z,60.23
2018-06-09T06:48:26.050Z,58.03
2018-06-09T06:50:54.218Z,57.67
2018-06-09T06:53:22.389Z,57.80
2018-06-09T06:55:50.558Z,56.10
2018-06-09T06:58:18.741Z,54.43
2018-06-09T07:00:46.905Z,57.40
2018-06-09T07:03:15.085Z,57.37
2018-06-09T07:05:43.270Z,54.87
2018-06-09T07:08:11.431Z,56.67
2018-06-09T07:10:39.617Z,49.40
2018-06-09T07:13:07.773Z,52.83
2018-06-09T07:15:35.968Z,54.07
2018-06-09T07:18:04.130Z,53.43
2018-06-09T07:20:32.285Z,53.60
2018-06-09T07:23:00.466Z,52.23
2018-06-09T07:25:28.631Z,55.27
2018-06-09T07:27:56.801Z,55.00
2018-06-09T07:30:24.991Z,51.17
2018-06-09T07:32:53.147Z,50.97
2018-06-09T07:35:21.331Z,46.33
2018-06-09T07:37:49.501Z,47.23
2018-06-09T07:40:17.700Z,47.43
2018-06-09T07:42:45.844Z,45.20
2018-06-09T07:45:14.029Z,48.10
2018-06-09T07:47:42.192Z,49.00
2018-06-09T07:50:10.371Z,47.90
2018-06-09T07:52:38.510Z,44.93
2018-06-09T07:55:06.734Z,46.47
2018-06-09T07:57:34.898Z,44.97
2018-06-09T08:00:03.081Z,44.97
2018-06-09T08:02:31.246Z,42.93
2018-06-09T08:04:59.418Z,42.67
2018-06-09T08:07:27.578Z,42.20
2018-06-09T08:09:55.767Z,41.57
2018-06-09T08:12:23.954Z,37.33
2018-06-09T08:14:52.154Z,41.83
2018-06-09T08:17:20.383Z,40.50
2018-06-09T08:19:48.562Z,34.73
2018-06-09T08:22:16.726Z,38.77
2018-06-09T08:24:44.900Z,40.83
2018-06-09T08:27:13.058Z,40.60
2018-06-09T08:29:40.988Z,39.53
2018-06-09T08:32:09.162Z,38.83
2018-06-09T08:34:37.336Z,36.30
2018-06-09T08:37:05.497Z,40.40
2018-06-09T08:39:33.671Z,39.07
2018-06-09T08:42:01.860Z,36.17
2018-06-09T08:44:30.035Z,35.63
2018-06-09T08:46:58.198Z,31.03
2018-06-09T08:49:26.361Z,34.60
2018-06-09T08:51:54.533Z,31.87
2018-06-09T08:54:22.681Z,31.07
2018-06-09T08:56:50.892Z,32.60
2018-06-09T08:59:19.020Z,32.00
2018-06-09T09:01:46.943Z,32.90
2018-06-09T09:04:15.106Z,31.40
2018-06-09T09:06:43.277Z,32.37
2018-06-09T09:09:11.462Z,30.83
2018-06-09T09:11:39.638Z,29.17
2018-06-09T09:14:07.805Z,29.97
2018-06-09T09:16:35.995Z,30.90
2018-06-09T09:19:04.149Z,29.83
2018-06-09T09:21:32.323Z,27.47
2018-06-09T09:24:00.497Z,27.93
2018-06-09T09:26:28.677Z,29.70
2018-06-09T09:28:56.884Z,28.50
2018-06-09T09:31:25.062Z,24.40
2018-06-09T09:33:53.220Z,22.87
2018-06-09T09:36:21.430Z,20.97
2018-06-09T09:38:49.612Z,22.07
2018-06-09T09:41:17.827Z,21.67
2018-06-09T09:43:46.009Z,18.77
2018-06-09T09:46:14.212Z,20.20
2018-06-09T09:48:42.427Z,22.13
2018-06-09T09:51:10.622Z,23.20
2018-06-09T09:53:38.801Z,21.73
2018-06-09T09:56:06.982Z,22.17
2018-06-09T09:58:35.176Z,24.53
2018-06-09T10:01:03.345Z,21.60
2018-06-09T10:03:31.513Z,23.00
2018-06-09T10:05:59.718Z,23.93
2018-06-09T10:08:27.932Z,25.93
2018-06-09T10:10:56.117Z,23.57
2018-06-09T10:13:24.289Z,23.50
2018-06-09T10:15:52.472Z,21.50
2018-06-09T10:18:20.637Z,24.23
2018-06-09T10:20:48.821Z,24.47
2018-06-09T10:23:16.993Z,25.93
2018-06-09T10:25:45.168Z,21.93
2018-06-09T10:28:13.357Z,25.57
2018-06-09T10:30:41.626Z,24.17
2018-06-09T10:33:09.809Z,23.13
2018-06-09T10:35:37.985Z,24.93
2018-06-09T10:38:06.212Z,24.90
2018-06-09T10:40:34.413Z,21.73
2018-06-09T10:43:02.585Z,21.30
2018-06-09T10:45:30.754Z,24.03
2018-06-09T10:47:58.933Z,23.77
2018-06-09T10:50:27.121Z,21.47
2018-06-09T10:52:55.364Z,21.60
2018-06-09T10:55:23.561Z,21.23
2018-06-09T10:57:51.749Z,22.47
2018-06-09T11:00:19.928Z,22.57
2018-06-09T11:02:48.098Z,21.10
2018-06-09T11:05:16.266Z,20.33
2018-06-09T11:07:44.526Z,19.23
2018-06-09T11:10:12.705Z,18.60
2018-06-09T11:12:40.881Z,19.13
2018-06-09T11:15:09.066Z,17.43
2018-06-09T11:17:37.315Z,17.27
2018-06-09T11:20:05.503Z,17.27
2018-06-09T11:22:33.674Z,17.67
2018-06-09T11:25:01.852Z,17.27
2018-06-09T11:27:30.027Z,17.47
2018-06-09T11:29:58.242Z,18.03
2018-06-09T11:32:26.389Z,18.33
2018-06-09T11:34:54.609Z,17.23
2018-06-09T11:37:22.805Z,19.03
2018-06-09T11:39:51.013Z,18.50
2018-06-09T11:42:19.212Z,16.80
2018-06-09T11:44:47.407Z,18.10
2018-06-09T11:47:15.596Z,18.70
2018-06-09T11:49:43.805Z,18.13
2018-06-09T11:52:11.985Z,19.53
2018-06-09T11:54:40.182Z,18.27
2018-06-09T11:57:08.378Z,19.70
2018-06-09T11:59:36.554Z,19.27
2018-06-09T12:02:04.484Z,16.53
2018-06-09T12:04:32.676Z,17.17
2018-06-09T12:07:00.609Z,18.73
2018-06-09T12:09:28.786Z,18.50
2018-06-09T12:11:56.948Z,18.63
2018-06-09T12:14:25.134Z,18.07
2018-06-09T12:16:53.336Z,18.53
2018-06-09T12:19:21.559Z,19.57
2018-06-09T12:21:49.744Z,20.80
2018-06-09T12:24:17.914Z,19.27
2018-06-09T12:26:46.157Z,19.40
2018-06-09T12:29:14.355Z,19.60
2018-06-09T12:31:42.541Z,19.60
2018-06-09T12:34:10.730Z,21.17
2018-06-09T12:36:38.957Z,19.60
2018-06-09T12:39:07.793Z,21.20
2018-06-09T12:41:35.983Z,19.23
2018-06-09T12:44:04.179Z,20.33
2018-06-09T12:46:32.365Z,20.27
2018-06-09T12:49:00.356Z,19.70
2018-06-09T12:51:28.520Z,19.10
2018-06-09T12:53:56.696Z,21.90
2018-06-09T12:56:24.889Z,18.33
2018-06-09T12:58:53.077Z,18.97
2018-06-09T13:01:21.363Z,18.40
2018-06-09T13:03:49.610Z,19.53
2018-06-09T13:06:17.806Z,17.73
2018-06-09T13:08:46.053Z,18.80
2018-06-09T13:11:14.226Z,18.80
2018-06-09T13:13:42.401Z,18.80
2018-06-09T13:16:10.573Z,18.90
2018-06-09T13:18:38.853Z,18.33
2018-06-09T13:21:07.040Z,18.73
2018-06-09T13:23:35.225Z,18.30
2018-06-09T13:26:03.474Z,19.83
2018-06-09T13:28:31.648Z,19.50
2018-06-09T13:30:59.808Z,17.57
2018-06-09T13:33:27.984Z,17.80
2018-06-09T13:35:56.210Z,18.40
2018-06-09T13:38:24.358Z,17.33
2018-06-09T13:40:52.519Z,16.83
2018-06-09T13:43:20.774Z,16.17
2018-06-09T13:45:48.724Z,16.27
2018-06-09T13:48:16.942Z,16.87
2018-06-09T13:50:45.104Z,16.37
2018-06-09T13:53:13.310Z,16.57
2018-06-09T13:55:41.481Z,16.27
2018-06-09T13:58:09.659Z,16.63
2018-06-09T14:00:37.866Z,16.80
2018-06-09T14:03:06.072Z,16.27
2018-06-09T14:05:34.029Z,16.43
2018-06-09T14:08:02.230Z,16.33
2018-06-09T14:10:30.430Z,16.57
2018-06-09T14:12:58.673Z,15.57
2018-06-09T14:15:26.861Z,16.60
2018-06-09T14:17:55.051Z,16.63
2018-06-09T14:20:23.233Z,17.63
2018-06-09T14:22:51.432Z,19.70
2018-06-09T14:25:19.646Z,19.87
2018-06-09T14:27:47.825Z,18.97
2018-06-09T14:30:15.990Z,19.20
2018-06-09T14:32:44.170Z,17.23
2018-06-09T14:35:12.366Z,16.30
2018-06-09T14:37:40.538Z,17.27
2018-06-09T14:40:08.739Z,16.53
2018-06-09T14:42:36.939Z,16.70
2018-06-09T14:45:05.146Z,17.27
2018-06-09T14:47:33.337Z,17.57
2018-06-09T14:50:01.526Z,16.53
2018-06-09T14:52:29.700Z,18.10
2018-06-09T14:54:57.909Z,16.00
2018-06-09T14:57:26.114Z,16.77
2018-06-09T14:59:54.313Z,17.00
2018-06-09T15:02:22.484Z,16.83
2018-06-09T15:04:50.707Z,16.07
2018-06-09T15:07:18.936Z,16.67
2018-06-09T15:09:47.098Z,16.87
2018-06-09T15:12:15.277Z,17.27
2018-06-09T15:14:43.456Z,17.27
2018-06-09T15:17:18.375Z,18.60
2018-06-09T15:19:46.549Z,19.33
2018-06-09T15:22:14.732Z,19.57
2018-06-09T15:24:42.957Z,21.03
2018-06-09T15:27:11.167Z,20.17
2018-06-09T15:29:39.369Z,22.63
2018-06-09T15:32:07.597Z,20.83
2018-06-09T15:34:35.523Z,21.20
2018-06-09T15:37:03.729Z,21.57
2018-06-09T15:39:31.906Z,21.83
2018-06-09T15:42:00.127Z,20.77
2018-06-09T15:44:28.320Z,19.20
2018-06-09T15:46:56.521Z,20.63
2018-06-09T15:49:24.708Z,19.40
2018-06-09T15:51:52.675Z,18.73
2018-06-09T15:54:20.862Z,19.27
2018-06-09T15:56:48.806Z,18.50
2018-06-09T15:59:16.991Z,19.90
2018-06-09T16:01:45.169Z,19.27
2018-06-09T16:04:13.115Z,18.17
2018-06-09T16:06:41.305Z,17.80
2018-06-09T16:09:09.557Z,14.70
2018-06-09T16:11:37.701Z,14.60
2018-06-09T16:14:05.977Z,14.40
2018-06-09T16:16:34.157Z,14.80
2018-06-09T16:19:02.317Z,17.77
2018-06-09T16:21:30.495Z,17.80
2018-06-09T16:23:58.678Z,14.80
2018-06-09T16:26:26.893Z,12.77
2018-06-09T16:28:55.083Z,12.80
2018-06-09T16:31:23.341Z,12.00
2018-06-09T16:33:51.538Z,10.83
2018-06-09T16:36:19.464Z,11.97
2018-06-09T16:38:47.659Z,11.50
2018-06-09T16:41:15.844Z,12.03
2018-06-09T16:43:44.010Z,12.07
2018-06-09T16:46:12.186Z,12.90
2018-06-09T16:48:40.763Z,13.40
2018-06-09T16:51:08.957Z,14.43
2018-06-09T16:53:37.145Z,13.23
2018-06-09T16:56:05.089Z,13.07
2018-06-09T16:58:33.254Z,12.23
2018-06-09T17:01:01.490Z,11.97
2018-06-09T17:03:29.417Z,12.30
2018-06-09T17:05:57.606Z,11.57
2018-06-09T17:08:25.777Z,11.57
2018-06-09T17:10:53.731Z,11.77
2018-06-09T17:13:21.905Z,11.10
2018-06-09T17:15:50.081Z,10.90
2018-06-09T17:18:18.270Z,11.53
2018-06-09T17:20:46.181Z,10.40
2018-06-09T17:23:14.380Z,10.60
2018-06-09T17:25:42.572Z,10.20
2018-06-09T17:28:10.747Z,10.33
2018-06-09T17:30:38.909Z,10.73
2018-06-09T17:33:07.100Z,10.30
2018-06-09T17:35:35.010Z,10.50
2018-06-09T17:38:03.188Z,10.47
2018-06-09T17:40:31.344Z,10.33
2018-06-09T17:42:59.520Z,10.63
2018-06-09T17:45:27.670Z,10.10
2018-06-09T17:47:55.946Z,10.63
2018-06-09T17:50:23.877Z,9.87
2018-06-09T17:52:52.074Z,9.70
2018-06-09T17:55:20.240Z,9.53
2018-06-09T17:57:48.450Z,10.77
2018-06-09T18:00:16.609Z,10.10
2018-06-09T18:02:44.550Z,10.40
2018-06-09T18:05:12.713Z,10.37
2018-06-09T18:07:40.888Z,11.33
2018-06-09T18:10:09.097Z,11.07
2018-06-09T18:12:37.221Z,11.03
2018-06-09T18:15:05.408Z,11.77
2018-06-09T18:17:33.598Z,12.57
2018-06-09T18:20:01.765Z,13.03
2018-06-09T18:22:29.949Z,12.63
2018-06-09T18:24:58.145Z,11.90
2018-06-09T18:27:26.318Z,10.90
2018-06-09T18:29:54.232Z,10.80
2018-06-09T18:32:22.453Z,11.60
2018-06-09T18:34:50.633Z,11.43
2018-06-09T18:37:18.822Z,11.53
2018-06-09T18:39:46.997Z,11.73
2018-06-09T18:42:15.153Z,10.80
2018-06-09T18:44:43.335Z,11.47
2018-06-09T18:47:11.273Z,11.00
2018-06-09T18:49:39.445Z,10.77
2018-06-09T18:52:07.617Z,11.37
2018-06-09T18:54:35.797Z,10.30
2018-06-09T18:57:03.955Z,9.83
2018-06-09T18:59:32.140Z,9.60
2018-06-09T19:02:00.325Z,9.60
2018-06-09T19:04:28.509Z,9.90
2018-06-09T19:06:56.667Z,10.07
2018-06-09T19:09:24.838Z,9.97
2018-06-09T19:11:53.014Z,11.30
2018-06-09T19:14:21.193Z,26.07
2018-06-09T19:16:49.354Z,10.03
2018-06-09T19:19:17.541Z,11.23
2018-06-09T19:21:45.795Z,9.33
2018-06-09T19:24:13.974Z,16.57
2018-06-09T19:26:42.142Z,11.20
2018-06-09T19:29:10.565Z,11.00
2018-06-09T19:31:38.745Z,10.83
2018-06-09T19:34:06.900Z,10.10
2018-06-09T19:36:35.066Z,9.37
2018-06-09T19:39:04.017Z,9.30
2018-06-09T19:41:32.202Z,10.47
2018-06-09T19:44:00.401Z,9.93
2018-06-09T19:46:28.577Z,10.43
2018-06-09T19:48:56.783Z,10.60
2018-06-09T19:51:24.750Z,13.70
2018-06-09T19:53:52.925Z,20.70
2018-06-09T19:56:21.150Z,10.47
2018-06-09T19:58:49.350Z,12.80
2018-06-09T20:01:17.514Z,11.43
2018-06-09T20:03:45.699Z,10.70
2018-06-09T20:06:13.881Z,11.83
2018-06-09T20:08:42.052Z,11.60
2018-06-09T20:11:10.197Z,11.00
2018-06-09T20:13:38.406Z,11.73
2018-06-09T20:16:06.549Z,11.87
2018-06-09T20:18:34.717Z,11.30
2018-06-09T20:21:02.894Z,10.73
2018-06-09T20:23:31.084Z,11.63
2018-06-09T20:26:04.218Z,11.70
2018-06-09T20:28:32.671Z,10.73
2018-06-09T20:31:00.963Z,17.30
2018-06-09T20:33:29.133Z,11.37
2018-06-09T20:35:57.087Z,18.67
2018-06-09T20:38:25.257Z,11.33
2018-06-09T20:40:53.440Z,11.30
2018-06-09T20:43:21.593Z,11.60
2018-06-09T20:45:49.776Z,11.70
2018-06-09T20:48:17.958Z,15.03
2018-06-09T20:50:46.144Z,14.20
2018-06-09T20:53:14.322Z,14.20
2018-06-09T20:55:42.513Z,13.27
2018-06-09T20:58:10.857Z,13.03
2018-06-09T21:00:39.154Z,21.17
2018-06-09T21:03:07.160Z,15.30
2018-06-09T21:05:35.381Z,12.53
2018-06-09T21:08:03.623Z,18.73
2018-06-09T21:10:31.857Z,13.07
2018-06-09T21:13:00.098Z,14.47
2018-06-09T21:15:28.319Z,13.47
2018-06-09T21:17:56.484Z,15.83
2018-06-09T21:20:24.669Z,15.63
2018-06-09T21:22:52.830Z,15.73
2018-06-09T21:25:21.038Z,15.20
2018-06-09T21:27:54.603Z,15.93
2018-06-09T21:30:28.170Z,16.40
2018-06-09T21:33:01.807Z,16.23
2018-06-09T21:35:43.466Z,27.60
2018-06-09T21:38:17.810Z,15.27
2018-06-09T21:40:48.547Z,13.90
2018-06-09T21:43:22.454Z,13.80
2018-06-09T21:45:51.101Z,13.77
2018-06-09T21:48:19.860Z,15.87
2018-06-09T21:50:48.054Z,14.90
2018-06-09T21:53:16.228Z,14.77
2018-06-09T21:55:44.401Z,13.57
2018-06-09T21:58:12.594Z,12.97
2018-06-09T22:00:40.822Z,16.13
2018-06-09T22:03:08.981Z,14.77
2018-06-09T22:05:36.962Z,12.90
2018-06-09T22:08:05.138Z,14.17
2018-06-09T22:10:33.297Z,13.93
2018-06-09T22:13:01.225Z,13.50
2018-06-09T22:15:29.409Z,14.53
2018-06-09T22:17:57.620Z,13.53
2018-06-09T22:20:25.795Z,12.30
2018-06-09T22:22:53.737Z,12.87
2018-06-09T22:25:27.310Z,12.87
2018-06-09T22:27:55.492Z,13.20
2018-06-09T22:30:23.665Z,13.50
2018-06-09T22:32:51.841Z,14.53
2018-06-09T22:35:20.005Z,14.13
2018-06-09T22:37:48.225Z,13.90
2018-06-09T22:40:16.406Z,14.00
2018-06-09T22:42:44.393Z,13.47
2018-06-09T22:45:12.557Z,12.90
2018-06-09T22:47:41.161Z,12.27
2018-06-09T22:50:09.369Z,13.57
2018-06-09T22:52:37.536Z,12.60
2018-06-09T22:55:05.793Z,12.10
2018-06-09T22:57:33.974Z,12.70
2018-06-09T23:00:02.166Z,12.77
2018-06-09T23:02:30.321Z,12.43
2018-06-09T23:04:58.489Z,12.63
2018-06-09T23:07:26.665Z,14.47
2018-06-09T23:09:54.846Z,13.57
2018-06-09T23:12:23.038Z,13.93
2018-06-09T23:14:51.221Z,13.47
2018-06-09T23:17:19.397Z,14.20
2018-06-09T23:19:47.596Z,14.23
2018-06-09T23:22:15.764Z,31.43
2018-06-09T23:24:43.726Z,21.57
2018-06-09T23:27:11.942Z,14.37
2018-06-09T23:29:40.191Z,14.33
2018-06-09T23:32:08.444Z,14.40
2018-06-09T23:34:36.704Z,15.63
2018-06-09T23:37:04.967Z,14.07
2018-06-09T23:39:33.236Z,14.47
2018-06-09T23:42:01.595Z,13.60
2018-06-09T23:44:29.779Z,15.47
2018-06-09T23:46:57.965Z,15.70
2018-06-09T23:49:26.140Z,16.77
2018-06-09T23:51:54.347Z,16.87
2018-06-09T23:54:22.497Z,25.50
2018-06-09T23:56:50.694Z,21.47
2018-06-09T23:59:18.873Z,15.50
